createdAt,value
2023-04-04T00:00:44.203Z,101078.16
2023-04-04T00:03:15.630Z,101079.13
2023-04-04T00:05:43.718Z,101090.09
2023-04-04T00:08:11.302Z,101081.34
2023-04-04T00:10:42.929Z,101086.75
2023-04-04T00:13:11.398Z,101090.44
2023-04-04T00:15:39.378Z,101091.41
2023-04-04T00:18:07.606Z,101086.75
2023-04-04T00:20:35.785Z,101081.84
2023-04-04T00:23:03.303Z,101083.53
2023-04-04T00:25:31.744Z,101077.34
2023-04-04T00:28:01.196Z,101079.19
2023-04-04T00:30:30.226Z,101082.72
2023-04-04T00:32:58.422Z,101078.16
2023-04-04T00:35:26.077Z,101079.34
2023-04-04T00:37:53.728Z,101086.22
2023-04-04T00:40:21.120Z,101086.09
2023-04-04T00:42:48.539Z,101093.44
2023-04-04T00:45:16.472Z,101087.78
2023-04-04T00:47:44.500Z,101088.28
2023-04-04T00:50:12.252Z,101089.13
2023-04-04T00:52:39.623Z,101088.28
2023-04-04T00:55:08.165Z,101096.38
2023-04-04T00:57:36.170Z,101093.16
2023-04-04T01:00:06.655Z,101090.81
2023-04-04T01:02:35.867Z,101090.84
2023-04-04T01:05:04.607Z,101090.16
2023-04-04T01:07:39.918Z,101088.66
2023-04-04T01:10:08.381Z,101074.56
2023-04-04T01:12:36.401Z,101080.44
2023-04-04T01:15:04.082Z,101084.47
2023-04-04T01:17:33.332Z,101087.47
2023-04-04T01:20:16.277Z,101089.16
2023-04-04T01:22:48.455Z,101099.22
2023-04-04T01:25:18.176Z,101099.22
2023-04-04T01:27:46.464Z,101101.91
2023-04-04T01:30:17.432Z,101096.53
2023-04-04T01:33:02.309Z,101097.56
2023-04-04T01:35:58.173Z,101099.06
2023-04-04T01:38:39.345Z,101106.75
2023-04-04T01:41:09.944Z,101101.84
2023-04-04T01:43:37.665Z,101101.78
2023-04-04T01:46:06.197Z,101096.78
2023-04-04T01:48:33.639Z,101103.81
2023-04-04T01:51:02.620Z,101100.78
2023-04-04T01:53:30.135Z,101099.75
2023-04-04T01:55:57.916Z,101100.78
2023-04-04T01:58:26.270Z,101101.09
2023-04-04T02:00:53.910Z,101108.16
2023-04-04T02:03:21.385Z,101111.69
2023-04-04T02:05:48.985Z,101114.47
2023-04-04T02:08:17.299Z,101107.97
2023-04-04T02:10:44.641Z,101089.84
2023-04-04T02:13:12.313Z,101093.94
2023-04-04T02:15:59.671Z,101090.94
2023-04-04T02:18:27.107Z,101095.63
2023-04-04T02:20:58.268Z,101090.25
2023-04-04T02:23:25.872Z,101091.56
2023-04-04T02:25:53.473Z,101098.19
2023-04-04T02:28:23.256Z,101100.91
2023-04-04T02:30:50.885Z,101100.53
2023-04-04T02:33:20.790Z,101091.78
2023-04-04T02:35:48.193Z,101096.50
2023-04-04T02:38:15.694Z,101094.56
2023-04-04T02:40:45.930Z,101101.41
2023-04-04T02:43:13.438Z,101096.03
2023-04-04T02:45:40.865Z,101099.34
2023-04-04T02:48:10.765Z,101097.75
2023-04-04T02:50:39.488Z,101105.94
2023-04-04T02:53:07.255Z,101100.03
2023-04-04T02:55:34.839Z,101104.38
2023-04-04T02:58:02.368Z,101110.41
2023-04-04T03:00:30.191Z,101112.47
2023-04-04T03:02:58.571Z,101107.72
2023-04-04T03:05:27.623Z,101113.00
2023-04-04T03:07:57.914Z,101120.16
2023-04-04T03:10:27.276Z,101124.09
2023-04-04T03:12:54.656Z,101120.34
2023-04-04T03:15:22.833Z,101124.66
2023-04-04T03:17:51.921Z,101127.69
2023-04-04T03:20:19.784Z,101123.28
2023-04-04T03:22:48.053Z,101123.59
2023-04-04T03:25:16.300Z,101130.81
2023-04-04T03:27:45.613Z,101129.41
2023-04-04T03:30:13.426Z,101135.13
2023-04-04T03:32:41.734Z,101131.06
2023-04-04T03:35:09.359Z,101139.50
2023-04-04T03:37:40.346Z,101135.88
2023-04-04T03:40:09.550Z,101141.47
2023-04-04T03:42:36.962Z,101145.47
2023-04-04T03:45:04.630Z,101151.59
2023-04-04T03:47:32.160Z,101153.03
2023-04-04T03:50:02.510Z,101155.81
2023-04-04T03:52:30.258Z,101160.78
2023-04-04T03:54:57.697Z,101168.22
2023-04-04T03:57:27.326Z,101174.09
2023-04-04T03:59:54.920Z,101173.03
2023-04-04T04:02:26.261Z,101178.81
2023-04-04T04:04:53.632Z,101181.53
2023-04-04T04:07:21.617Z,101190.56
2023-04-04T04:09:49.046Z,101190.28
2023-04-04T04:12:16.598Z,101183.63
2023-04-04T04:14:44.181Z,101186.09
2023-04-04T04:17:11.954Z,101188.47
2023-04-04T04:19:39.824Z,101189.56
2023-04-04T04:22:07.214Z,101196.88
2023-04-04T04:24:34.879Z,101195.97
2023-04-04T04:27:02.342Z,101191.53
2023-04-04T04:29:30.928Z,101189.66
2023-04-04T04:31:59.090Z,101182.41
2023-04-04T04:34:26.544Z,101182.06
2023-04-04T04:36:59.489Z,101180.72
2023-04-04T04:39:27.395Z,101187.09
2023-04-04T04:41:54.895Z,101192.38
2023-04-04T04:44:24.669Z,101188.59
2023-04-04T04:46:52.236Z,101191.34
2023-04-04T04:49:22.971Z,101201.50
2023-04-04T04:51:50.653Z,101198.13
2023-04-04T04:54:17.986Z,101201.78
2023-04-04T04:56:45.690Z,101201.09
2023-04-04T04:59:15.156Z,101201.00
2023-04-04T05:01:43.929Z,101200.50
2023-04-04T05:04:12.158Z,101190.16
2023-04-04T05:06:39.591Z,101195.47
2023-04-04T05:09:07.207Z,101196.09
2023-04-04T05:11:34.908Z,101192.78
2023-04-04T05:14:02.273Z,101200.94
2023-04-04T05:16:30.043Z,101203.00
2023-04-04T05:18:58.173Z,101202.19
2023-04-04T05:21:25.515Z,101204.44
2023-04-04T05:23:53.001Z,101197.19
2023-04-04T05:26:20.428Z,101200.34
2023-04-04T05:28:48.027Z,101195.09
2023-04-04T05:31:15.352Z,101208.75
2023-04-04T05:33:45.775Z,101210.59
2023-04-04T05:36:13.608Z,101224.31
2023-04-04T05:38:43.493Z,101227.25
2023-04-04T05:41:11.365Z,101226.56
2023-04-04T05:43:39.307Z,101227.25
2023-04-04T05:46:06.812Z,101224.63
2023-04-04T05:48:35.841Z,101218.28
2023-04-04T05:51:03.484Z,101217.06
2023-04-04T05:53:31.080Z,101225.66
2023-04-04T05:55:58.948Z,101234.09
2023-04-04T05:58:28.140Z,101220.81
2023-04-04T06:00:55.969Z,101222.16
2023-04-04T06:03:24.575Z,101230.22
2023-04-04T06:05:53.139Z,101232.09
2023-04-04T06:08:21.322Z,101227.91
2023-04-04T06:10:48.875Z,101223.88
2023-04-04T06:13:16.787Z,101230.25
2023-04-04T06:15:44.934Z,101225.91
2023-04-04T06:18:12.769Z,101224.88
2023-04-04T06:20:40.494Z,101229.56
2023-04-04T06:23:10.107Z,101240.31
2023-04-04T06:25:37.995Z,101239.75
2023-04-04T06:28:05.860Z,101234.97
2023-04-04T06:30:36.310Z,101240.13
2023-04-04T06:33:06.944Z,101234.69
2023-04-04T06:35:35.206Z,101242.41
2023-04-04T06:38:04.319Z,101239.91
2023-04-04T06:40:34.211Z,101247.09
2023-04-04T06:43:01.962Z,101253.06
2023-04-04T06:45:29.682Z,101252.06
2023-04-04T06:47:57.825Z,101256.75
2023-04-04T06:50:25.786Z,101248.69
2023-04-04T06:52:53.552Z,101253.16
2023-04-04T06:55:22.728Z,101251.63
2023-04-04T06:57:52.386Z,101259.81
2023-04-04T07:00:20.208Z,101254.41
2023-04-04T07:02:48.220Z,101266.44
2023-04-04T07:05:18.208Z,101252.84
2023-04-04T07:07:47.081Z,101264.13
2023-04-04T07:10:15.128Z,101266.88
2023-04-04T07:12:43.895Z,101252.84
2023-04-04T07:15:11.810Z,101251.53
2023-04-04T07:17:41.212Z,101252.91
2023-04-04T07:20:09.407Z,101250.84
2023-04-04T07:22:41.051Z,101255.28
2023-04-04T07:25:09.769Z,101249.69
2023-04-04T07:27:37.216Z,101243.53
2023-04-04T07:30:05.488Z,101238.38
2023-04-04T07:33:02.861Z,101231.88
2023-04-04T07:35:30.516Z,101237.75
2023-04-04T07:37:58.138Z,101238.63
2023-04-04T07:40:27.344Z,101243.25
2023-04-04T07:42:54.993Z,101240.69
2023-04-04T07:45:22.769Z,101239.72
2023-04-04T07:47:51.159Z,101241.59
2023-04-04T07:50:20.997Z,101238.13
2023-04-04T07:52:51.502Z,101223.19
2023-04-04T07:55:19.847Z,101225.13
2023-04-04T07:57:47.732Z,101232.44
2023-04-04T08:00:21.572Z,101230.34
2023-04-04T08:03:09.061Z,101227.56
2023-04-04T08:05:37.187Z,101230.00
2023-04-04T08:08:04.601Z,101236.75
2023-04-04T08:10:40.912Z,101231.84
2023-04-04T08:13:10.205Z,101226.44
2023-04-04T08:15:38.552Z,101230.22
2023-04-04T08:18:08.450Z,101231.53
2023-04-04T08:20:35.906Z,101217.72
2023-04-04T08:23:03.389Z,101221.28
2023-04-04T08:25:31.038Z,101233.09
2023-04-04T08:27:58.898Z,101221.03
2023-04-04T08:30:26.447Z,101210.94
2023-04-04T08:33:12.767Z,101210.81
2023-04-04T08:35:40.449Z,101204.31
2023-04-04T08:38:08.856Z,101198.59
2023-04-04T08:40:38.613Z,101198.88
2023-04-04T08:43:10.586Z,101196.13
2023-04-04T08:45:43.380Z,101199.25
2023-04-04T08:48:18.000Z,101184.00
2023-04-04T08:50:46.996Z,101194.47
2023-04-04T08:53:16.149Z,101194.66
2023-04-04T08:55:44.258Z,101188.22
2023-04-04T08:58:11.678Z,101188.44
2023-04-04T09:00:40.697Z,101184.00
2023-04-04T09:03:27.586Z,101180.25
2023-04-04T09:05:56.839Z,101180.25
2023-04-04T09:08:25.009Z,101181.94
2023-04-04T09:10:53.253Z,101175.63
2023-04-04T09:13:21.106Z,101169.34
2023-04-04T09:15:52.134Z,101169.41
2023-04-04T09:18:20.109Z,101177.34
2023-04-04T09:20:50.656Z,101177.78
2023-04-04T09:23:20.931Z,101168.88
2023-04-04T09:28:24.164Z,101165.22
2023-04-04T09:30:52.685Z,101174.84
2023-04-04T09:33:24.076Z,101164.41
2023-04-04T09:36:02.765Z,101165.63
2023-04-04T09:38:33.730Z,101163.16
2023-04-04T09:41:01.441Z,101168.56
2023-04-04T09:43:31.071Z,101167.75
2023-04-04T09:46:00.533Z,101168.56
2023-04-04T09:48:32.438Z,101161.44
2023-04-04T09:51:00.172Z,101162.59
2023-04-04T09:53:28.449Z,101160.59
2023-04-04T09:55:57.575Z,101165.59
2023-04-04T09:58:28.472Z,101158.91
2023-04-04T10:00:59.257Z,101154.75
2023-04-04T10:03:28.683Z,101148.91
2023-04-04T10:06:07.588Z,101144.72
2023-04-04T10:08:44.121Z,101152.47
2023-04-04T10:11:12.687Z,101147.88
2023-04-04T10:13:42.185Z,101149.34
2023-04-04T10:16:11.184Z,101152.66
2023-04-04T10:18:39.895Z,101147.66
2023-04-04T10:23:42.519Z,101145.16
2023-04-04T10:26:10.195Z,101147.84
2023-04-04T10:28:44.464Z,101145.03
2023-04-04T10:31:23.718Z,101144.59
2023-04-04T10:34:09.898Z,101143.31
2023-04-04T10:36:49.150Z,101146.09
2023-04-04T10:39:53.835Z,101141.81
2023-04-04T10:42:23.599Z,101133.88
2023-04-04T10:44:51.402Z,101145.84
2023-04-04T10:47:26.365Z,101144.06
2023-04-04T10:49:56.238Z,101140.97
2023-04-04T10:52:28.778Z,101137.09
2023-04-04T10:55:00.331Z,101140.06
2023-04-04T10:57:29.817Z,101136.25
2023-04-04T11:00:10.822Z,101128.44
2023-04-04T11:02:59.600Z,101120.41
2023-04-04T11:05:42.088Z,101112.31
2023-04-04T11:08:14.338Z,101124.75
2023-04-04T11:10:44.748Z,101129.69
2023-04-04T11:13:23.814Z,101123.88
2023-04-04T11:15:52.941Z,101117.72
2023-04-04T11:18:45.700Z,101114.66
2023-04-04T11:21:30.086Z,101111.66
2023-04-04T11:24:06.735Z,101111.09
2023-04-04T11:26:36.446Z,101109.03
2023-04-04T11:29:08.173Z,101102.66
2023-04-04T11:31:45.856Z,101092.75
2023-04-04T11:34:15.285Z,101089.75
2023-04-04T11:36:44.938Z,101076.50
2023-04-04T11:39:24.913Z,101075.47
2023-04-04T11:42:14.083Z,101075.59
2023-04-04T11:44:55.970Z,101079.03
2023-04-04T11:47:25.212Z,101070.84
2023-04-04T11:49:54.239Z,101078.38
2023-04-04T11:52:23.913Z,101082.50
2023-04-04T11:54:53.390Z,101082.47
2023-04-04T11:57:22.545Z,101085.59
2023-04-04T11:59:51.903Z,101075.53
2023-04-04T12:02:27.448Z,101082.19
2023-04-04T12:04:56.224Z,101075.94
2023-04-04T12:07:28.885Z,101073.31
2023-04-04T12:09:57.903Z,101069.38
2023-04-04T12:12:28.444Z,101070.66
2023-04-04T12:15:06.240Z,101072.63
2023-04-04T12:17:44.199Z,101073.19
2023-04-04T12:20:11.741Z,101082.50
2023-04-04T12:22:40.583Z,101076.81
2023-04-04T12:25:08.698Z,101074.38
2023-04-04T12:27:36.978Z,101072.34
2023-04-04T12:30:07.942Z,101067.84
2023-04-04T12:32:35.611Z,101061.56
2023-04-04T12:35:03.893Z,101054.91
2023-04-04T12:37:33.278Z,101050.84
2023-04-04T12:40:02.487Z,101041.94
2023-04-04T12:42:32.044Z,101038.13
2023-04-04T12:45:04.109Z,101038.50
2023-04-04T12:47:32.481Z,101035.88
2023-04-04T12:49:59.909Z,101031.34
2023-04-04T12:52:32.385Z,101018.91
2023-04-04T12:55:09.463Z,101014.53
2023-04-04T12:57:40.163Z,101014.75
2023-04-04T13:00:09.176Z,101013.91
2023-04-04T13:02:38.923Z,101010.78
2023-04-04T13:05:07.924Z,101015.19
2023-04-04T13:07:44.528Z,101024.34
2023-04-04T13:10:16.353Z,101018.34
2023-04-04T13:13:01.185Z,101012.84
2023-04-04T13:15:49.347Z,100994.59
2023-04-04T13:18:21.295Z,100999.25
2023-04-04T13:20:49.795Z,100998.59
2023-04-04T13:23:18.477Z,101007.25
2023-04-04T13:25:46.781Z,101015.97
2023-04-04T13:28:15.806Z,101022.66
2023-04-04T13:30:49.579Z,101020.56
2023-04-04T13:33:18.835Z,101024.81
2023-04-04T13:35:46.759Z,101012.63
2023-04-04T13:38:16.668Z,101006.91
2023-04-04T13:40:44.608Z,101013.19
2023-04-04T13:43:13.047Z,101009.38
2023-04-04T13:45:43.503Z,101002.75
2023-04-04T13:48:11.520Z,100997.84
2023-04-04T13:50:43.611Z,100986.03
2023-04-04T13:53:11.911Z,100982.72
2023-04-04T13:56:01.432Z,100990.91
2023-04-04T13:58:33.328Z,100995.19
2023-04-04T14:01:07.076Z,100994.78
2023-04-04T14:03:37.172Z,100991.97
2023-04-04T14:06:10.483Z,101004.53
2023-04-04T14:08:39.059Z,101000.72
2023-04-04T14:11:06.818Z,101006.50
2023-04-04T14:13:34.536Z,101001.34
2023-04-04T14:16:02.167Z,101003.91
2023-04-04T14:18:31.015Z,100991.44
2023-04-04T14:20:58.401Z,100999.91
2023-04-04T14:23:27.287Z,101002.44
2023-04-04T14:25:55.166Z,101006.13
2023-04-04T14:28:22.601Z,101006.19
2023-04-04T14:30:51.677Z,100994.31
2023-04-04T14:33:19.902Z,100995.88
2023-04-04T14:35:47.386Z,100998.78
2023-04-04T14:38:14.954Z,101010.53
2023-04-04T14:40:48.427Z,101016.25
2023-04-04T14:43:16.218Z,101015.03
2023-04-04T14:45:48.608Z,101013.75
2023-04-04T14:48:16.728Z,101004.09
2023-04-04T14:50:45.017Z,101007.91
2023-04-04T14:53:13.181Z,101002.81
2023-04-04T14:55:41.757Z,100997.75
2023-04-04T14:58:12.585Z,101002.13
2023-04-04T15:00:40.816Z,101003.38
2023-04-04T15:03:12.714Z,101000.78
2023-04-04T15:05:42.665Z,100999.22
2023-04-04T15:08:10.484Z,100995.25
2023-04-04T15:10:38.286Z,100995.00
2023-04-04T15:13:13.990Z,100989.59
2023-04-04T15:15:41.764Z,100994.38
2023-04-04T15:18:09.579Z,100999.19
2023-04-04T15:20:42.322Z,100990.25
2023-04-04T15:23:09.849Z,100983.97
2023-04-04T15:25:37.307Z,100982.81
2023-04-04T15:28:04.977Z,100979.16
2023-04-04T15:30:33.425Z,100973.09
2023-04-04T15:33:01.624Z,100968.13
2023-04-04T15:35:29.365Z,100972.94
2023-04-04T15:37:57.131Z,100974.19
2023-04-04T15:40:24.546Z,100969.75
2023-04-04T15:42:52.320Z,100967.94
2023-04-04T15:45:20.982Z,100966.91
2023-04-04T15:47:48.969Z,100970.44
2023-04-04T15:50:16.501Z,100978.00
2023-04-04T15:52:43.952Z,100967.50
2023-04-04T15:55:14.484Z,100970.06
2023-04-04T15:57:44.859Z,100961.50
2023-04-04T16:00:14.047Z,100967.41
2023-04-04T16:02:43.641Z,100964.28
2023-04-04T16:05:11.593Z,100965.97
2023-04-04T16:07:39.176Z,100963.50
2023-04-04T16:10:08.796Z,100963.66
2023-04-04T16:12:36.741Z,100964.34
2023-04-04T16:15:06.164Z,100953.91
2023-04-04T16:17:33.688Z,100955.78
2023-04-04T16:20:01.226Z,100943.44
2023-04-04T16:22:28.665Z,100934.69
2023-04-04T16:24:56.049Z,100935.97
2023-04-04T16:27:24.838Z,100939.97
2023-04-04T16:29:55.559Z,100938.09
2023-04-04T16:32:23.954Z,100941.22
2023-04-04T16:34:51.373Z,100933.91
2023-04-04T16:37:19.486Z,100930.81
2023-04-04T16:39:48.246Z,100922.22
2023-04-04T16:42:19.509Z,100923.06
2023-04-04T16:44:49.088Z,100921.19
2023-04-04T16:47:16.574Z,100926.41
2023-04-04T16:49:44.186Z,100915.53
2023-04-04T16:52:11.798Z,100916.38
2023-04-04T16:54:39.373Z,100911.41
2023-04-04T16:57:09.613Z,100913.50
2023-04-04T16:59:37.456Z,100915.63
2023-04-04T17:02:08.277Z,100923.97
2023-04-04T17:04:41.122Z,100916.50
2023-04-04T17:07:09.455Z,100922.75
2023-04-04T17:09:37.145Z,100926.28
2023-04-04T17:12:06.997Z,100921.09
2023-04-04T17:14:40.104Z,100926.91
2023-04-04T17:17:08.988Z,100924.84
2023-04-04T17:19:37.390Z,100922.34
2023-04-04T17:22:06.158Z,100920.66
2023-04-04T17:24:33.657Z,100918.59
2023-04-04T17:27:01.489Z,100916.09
2023-04-04T17:29:30.300Z,100921.31
2023-04-04T17:31:59.876Z,100909.00
2023-04-04T17:34:27.459Z,100909.38
2023-04-04T17:36:55.397Z,100905.22
2023-04-04T17:39:22.910Z,100904.41
2023-04-04T17:41:52.159Z,100904.41
2023-04-04T17:44:20.642Z,100918.16
2023-04-04T17:46:48.405Z,100915.25
2023-04-04T17:49:20.579Z,100915.66
2023-04-04T17:51:49.256Z,100916.06
2023-04-04T17:54:17.544Z,100908.34
2023-04-04T17:56:46.167Z,100911.06
2023-04-04T17:59:14.871Z,100903.53
2023-04-04T18:01:43.850Z,100907.72
2023-04-04T18:04:11.310Z,100903.56
2023-04-04T18:06:40.414Z,100896.47
2023-04-04T18:09:10.432Z,100896.06
2023-04-04T18:11:39.249Z,100896.25
2023-04-04T18:14:07.020Z,100899.41
2023-04-04T18:16:39.735Z,100889.78
2023-04-04T18:19:10.127Z,100885.16
2023-04-04T18:21:38.614Z,100875.41
2023-04-04T18:24:11.903Z,100870.72
2023-04-04T18:26:39.770Z,100873.06
2023-04-04T18:29:07.336Z,100886.38
2023-04-04T18:31:34.760Z,100882.25
2023-04-04T18:34:02.536Z,100872.84
2023-04-04T18:36:30.025Z,100863.25
2023-04-04T18:38:57.389Z,100860.16
2023-04-04T18:41:24.834Z,100852.19
2023-04-04T18:43:52.291Z,100843.25
2023-04-04T18:46:19.945Z,100844.28
2023-04-04T18:48:47.634Z,100850.50
2023-04-04T18:51:15.879Z,100852.63
2023-04-04T18:53:47.117Z,100846.56
2023-04-04T18:56:15.712Z,100840.94
2023-04-04T18:58:43.504Z,100825.31
2023-04-04T19:01:12.655Z,100824.28
2023-04-04T19:03:47.646Z,100813.25
2023-04-04T19:06:16.249Z,100801.16
2023-04-04T19:08:44.584Z,100808.69
2023-04-04T19:11:12.621Z,100804.28
2023-04-04T19:13:40.120Z,100811.38
2023-04-04T19:16:07.739Z,100813.84
2023-04-04T19:18:35.307Z,100807.22
2023-04-04T19:21:02.815Z,100803.88
2023-04-04T19:23:30.866Z,100791.34
2023-04-04T19:26:02.171Z,100793.44
2023-04-04T19:28:33.532Z,100793.81
2023-04-04T19:31:02.193Z,100788.00
2023-04-04T19:33:33.292Z,100787.84
2023-04-04T19:36:11.312Z,100793.63
2023-04-04T19:38:42.797Z,100797.59
2023-04-04T19:41:16.737Z,100785.50
2023-04-04T19:43:47.118Z,100783.03
2023-04-04T19:46:16.609Z,100784.91
2023-04-04T19:48:49.006Z,100771.75
2023-04-04T19:51:22.629Z,100777.13
2023-04-04T19:53:58.896Z,100764.22
2023-04-04T19:56:28.317Z,100766.31
2023-04-04T19:59:06.173Z,100764.97
2023-04-04T20:01:37.664Z,100756.63
2023-04-04T20:04:10.160Z,100753.78
2023-04-04T20:06:40.070Z,100755.81
2023-04-04T20:09:12.922Z,100767.94
2023-04-04T20:11:40.567Z,100757.50
2023-04-04T20:14:10.292Z,100759.13
2023-04-04T20:16:37.986Z,100768.97
2023-04-04T20:19:08.786Z,100760.22
2023-04-04T20:21:37.374Z,100758.72
2023-04-04T20:24:10.073Z,100762.47
2023-04-04T20:26:51.441Z,100756.63
2023-04-04T20:29:22.094Z,100753.72
2023-04-04T20:31:56.243Z,100757.47
2023-04-04T20:34:29.527Z,100750.84
2023-04-04T20:36:57.906Z,100743.66
2023-04-04T20:39:58.735Z,100745.81
2023-04-04T20:42:26.214Z,100739.97
2023-04-04T20:45:06.422Z,100737.91
2023-04-04T20:47:44.742Z,100730.44
2023-04-04T20:50:19.064Z,100724.66
2023-04-04T20:52:50.677Z,100714.22
2023-04-04T20:55:22.846Z,100719.44
2023-04-04T20:57:51.838Z,100713.00
2023-04-04T21:00:26.761Z,100707.06
2023-04-04T21:03:29.911Z,100683.88
2023-04-04T21:06:17.013Z,100678.50
2023-04-04T21:08:51.638Z,100680.38
2023-04-04T21:11:30.130Z,100678.31
2023-04-04T21:13:58.312Z,100665.41
2023-04-04T21:16:27.536Z,100678.31
2023-04-04T21:19:00.848Z,100677.84
2023-04-04T21:21:29.557Z,100683.91
2023-04-04T21:23:59.407Z,100683.09
2023-04-04T21:26:32.972Z,100686.41
2023-04-04T21:29:08.704Z,100673.13
2023-04-04T21:31:41.283Z,100690.19
2023-04-04T21:34:11.947Z,100686.84
2023-04-04T21:36:41.407Z,100692.22
2023-04-04T21:39:13.142Z,100686.81
2023-04-04T21:41:43.040Z,100682.28
2023-04-04T21:44:11.099Z,100686.88
2023-04-04T21:46:40.526Z,100672.72
2023-04-04T21:49:11.614Z,100667.31
2023-04-04T21:51:40.737Z,100674.38
2023-04-04T21:54:08.332Z,100670.00
2023-04-04T21:56:38.553Z,100669.78
2023-04-04T21:59:09.105Z,100668.09
2023-04-04T22:01:37.598Z,100659.78
2023-04-04T22:04:05.660Z,100647.50
2023-04-04T22:06:33.128Z,100638.34
2023-04-04T22:09:02.007Z,100649.41
2023-04-04T22:11:30.875Z,100635.06
2023-04-04T22:14:04.788Z,100636.28
2023-04-04T22:16:37.018Z,100634.22
2023-04-04T22:19:11.265Z,100637.75
2023-04-04T22:21:39.589Z,100634.41
2023-04-04T22:24:10.087Z,100633.59
2023-04-04T22:26:41.752Z,100631.09
2023-04-04T22:29:09.203Z,100628.81
2023-04-04T22:31:37.925Z,100634.81
2023-04-04T22:34:06.560Z,100624.84
2023-04-04T22:36:34.653Z,100628.56
2023-04-04T22:39:02.948Z,100630.03
2023-04-04T22:41:30.552Z,100624.81
2023-04-04T22:43:58.290Z,100630.22
2023-04-04T22:46:26.781Z,100632.34
2023-04-04T22:49:05.616Z,100626.50
2023-04-04T22:51:45.607Z,100623.97
2023-04-04T22:54:16.760Z,100637.28
2023-04-04T22:56:44.745Z,100636.06
2023-04-04T22:59:12.291Z,100635.44
2023-04-04T23:01:40.712Z,100634.81
2023-04-04T23:04:09.447Z,100636.94
2023-04-04T23:06:38.541Z,100629.00
2023-04-04T23:09:08.074Z,100630.03
2023-04-04T23:11:36.176Z,100626.50
2023-04-04T23:14:15.223Z,100614.47
2023-04-04T23:16:44.519Z,100615.69
2023-04-04T23:19:12.907Z,100623.59
2023-04-04T23:21:40.643Z,100623.16
2023-04-04T23:24:08.250Z,100615.03
2023-04-04T23:26:35.786Z,100616.50
2023-04-04T23:29:03.332Z,100608.94
2023-04-04T23:31:31.323Z,100617.97
2023-04-04T23:34:00.156Z,100619.84
2023-04-04T23:36:27.720Z,100614.81
2023-04-04T23:38:55.159Z,100608.19
2023-04-04T23:41:23.430Z,100610.63
2023-04-04T23:43:50.883Z,100609.03
2023-04-04T23:46:20.012Z,100610.28
2023-04-04T23:48:48.435Z,100614.84
2023-04-04T23:51:19.479Z,100611.44
2023-04-04T23:53:47.365Z,100616.84
2023-04-04T23:56:14.781Z,100601.41
2023-04-04T23:58:42.246Z,100604.91
